Time;durP1;ratioP1;P1;durP2;ratioP2;P2;SDS_P1;SDS_P2;PMS_P1;PMS_P2;Temp;Humidity;BMP_temperature;BMP_pressure;BME280_temperature;BME280_humidity;BME280_pressure;Samples;Min_cycle;Max_cycle;Signal;HPM_P1;HPM_P2
2023/02/23 00:00:27;;;;;;;46.53;38.97;;;;;;;;;;517983;28;1598;-70
2023/02/23 00:00:43;;;;;;;51.15;40.35;;;;;;;;;;519220;28;1815;-70
2023/02/23 00:00:59;;;;;;;51.75;40.47;;;;;;;;;;518999;28;1381;-69
2023/02/23 00:01:18;;;;;;;49.00;39.97;;;;;;;;;;521191;28;1491;-71
2023/02/23 00:01:34;;;;;;;51.45;40.97;;;;;;;;;;520710;28;1548;-70
2023/02/23 00:01:49;;;;;;;50.80;41.10;;;;;;;;;;515664;28;1409;-70
2023/02/23 00:02:05;;;;;;;51.57;40.53;;;;;;;;;;514104;28;1553;-71
2023/02/23 00:02:20;;;;;;;47.00;39.22;;;;;;;;;;515791;28;1690;-70
2023/02/23 00:02:35;;;;;;;45.93;39.77;;;;;;;;;;515770;28;1288;-70
2023/02/23 00:02:50;;;;;;;47.93;41.03;;;;;;;;;;518599;28;1253;-70
2023/02/23 00:03:06;;;;;;;47.97;40.20;;;;;;;;;;518181;28;1400;-70
2023/02/23 00:03:21;;;;;;;47.40;39.43;;;;;;;;;;518201;28;2017;-70
2023/02/23 00:03:36;;;;;;;47.20;39.90;;;;;;;;;;519031;28;1111;-70
2023/02/23 00:03:56;;;;;;;45.23;38.37;;;;;;;;;;517683;28;1534;-70
2023/02/23 00:04:12;;;;;;;45.07;37.83;;;;;;;;;;517207;28;1730;-70
2023/02/23 00:04:28;;;;;;;43.07;36.93;;;;;;;;;;515867;28;1339;-70
2023/02/23 00:04:43;;;;;;;42.08;36.88;;;;;;;;;;515010;28;1390;-70
2023/02/23 00:04:58;;;;;;;43.80;37.50;;;;;;;;;;515663;28;1422;-71
2023/02/23 00:05:16;;;;;;;43.73;37.93;;;;;;;;;;514638;28;1238;-70
2023/02/23 00:05:35;;;;;;;44.10;38.38;;;;;;;;;;514671;28;1347;-70
2023/02/23 00:05:50;;;;;;;46.83;39.05;;;;;;;;;;516610;28;1618;-70
2023/02/23 00:06:07;;;;;;;47.40;39.13;;;;;;;;;;520272;28;1285;-70
2023/02/23 00:06:25;;;;;;;48.03;39.78;;;;;;;;;;518693;28;1274;-70
2023/02/23 00:06:41;;;;;;;46.85;39.45;;;;;;;;;;518022;28;1338;-70
2023/02/23 00:06:56;;;;;;;47.80;40.03;;;;;;;;;;518487;28;1526;-70
2023/02/23 00:07:12;;;;;;;46.37;39.77;;;;;;;;;;515610;28;1706;-71
2023/02/23 00:07:27;;;;;;;44.97;38.93;;;;;;;;;;517038;28;1450;-71
2023/02/23 00:07:44;;;;;;;46.17;39.33;;;;;;;;;;516916;28;1406;-70
2023/02/23 00:07:59;;;;;;;44.85;38.65;;;;;;;;;;516672;28;1137;-70
2023/02/23 00:08:14;;;;;;;41.03;36.00;;;;;;;;;;516783;28;1349;-71
2023/02/23 00:08:29;;;;;;;39.20;34.90;;;;;;;;;;515182;28;1232;-70
2023/02/23 00:08:48;;;;;;;38.95;34.75;;;;;;;;;;519185;28;1630;-70
2023/02/23 00:09:07;;;;;;;38.65;34.42;;;;;;;;;;515945;28;1283;-70
2023/02/23 00:09:23;;;;;;;38.40;34.25;;;;;;;;;;518850;28;1398;-70
2023/02/23 00:09:39;;;;;;;37.65;33.65;;;;;;;;;;520837;28;1546;-70
2023/02/23 00:09:55;;;;;;;40.10;35.67;;;;;;;;;;517529;28;1177;-71
2023/02/23 00:10:14;;;;;;;42.08;36.30;;;;;;;;;;517405;28;1407;-70
2023/02/23 00:10:29;;;;;;;39.13;34.85;;;;;;;;;;516786;28;1605;-70
2023/02/23 00:10:44;;;;;;;38.63;34.53;;;;;;;;;;516531;28;1476;-70
2023/02/23 00:11:00;;;;;;;37.55;33.55;;;;;;;;;;517773;28;1275;-70
2023/02/23 00:11:16;;;;;;;36.30;32.50;;;;;;;;;;517148;28;1479;-70
2023/02/23 00:11:32;;;;;;;36.38;32.47;;;;;;;;;;516801;28;1502;-69
2023/02/23 00:11:52;;;;;;;36.13;32.25;;;;;;;;;;516298;28;1374;-70
2023/02/23 00:12:07;;;;;;;36.20;32.40;;;;;;;;;;514463;28;2008;-70
2023/02/23 00:12:22;;;;;;;36.53;32.72;;;;;;;;;;516989;28;1401;-70
2023/02/23 00:12:39;;;;;;;35.80;32.03;;;;;;;;;;517086;28;1370;-69
2023/02/23 00:12:58;;;;;;;35.15;31.55;;;;;;;;;;519036;28;1424;-70
2023/02/23 00:13:13;;;;;;;35.88;32.17;;;;;;;;;;516989;28;1374;-70
2023/02/23 00:13:29;;;;;;;35.27;31.67;;;;;;;;;;516245;28;1350;-70
2023/02/23 00:13:48;;;;;;;35.10;31.50;;;;;;;;;;515498;28;1772;-69
2023/02/23 00:14:04;;;;;;;37.63;33.50;;;;;;;;;;516995;28;1535;-70
2023/02/23 00:14:26;;;;;;;36.33;32.33;;;;;;;;;;516751;28;1405;-70
2023/02/23 00:14:42;;;;;;;33.55;30.02;;;;;;;;;;518119;28;1361;-70
2023/02/23 00:14:58;;;;;;;32.63;29.33;;;;;;;;;;518791;28;1420;-70
2023/02/23 00:15:14;;;;;;;32.45;29.13;;;;;;;;;;517846;28;1638;-70
2023/02/23 00:15:30;;;;;;;32.58;29.27;;;;;;;;;;515459;28;1362;-70
2023/02/23 00:15:45;;;;;;;34.53;30.93;;;;;;;;;;516337;28;1439;-69
2023/02/23 00:16:13;;;;;;;35.67;31.90;;;;;;;;;;518770;28;1328;-69
2023/02/23 00:16:28;;;;;;;34.28;30.73;;;;;;;;;;517060;28;1414;-70
2023/02/23 00:16:44;;;;;;;33.30;29.87;;;;;;;;;;516379;28;1173;-70
2023/02/23 00:17:00;;;;;;;33.35;30.00;;;;;;;;;;516819;28;1263;-70
2023/02/23 00:17:16;;;;;;;34.70;31.20;;;;;;;;;;514570;28;1104;-69
2023/02/23 00:17:32;;;;;;;34.53;31.02;;;;;;;;;;514902;28;1312;-70
2023/02/23 00:17:47;;;;;;;34.38;30.88;;;;;;;;;;515248;28;1470;-71
2023/02/23 00:18:03;;;;;;;34.73;31.33;;;;;;;;;;513927;28;1435;-70
2023/02/23 00:18:19;;;;;;;36.80;33.13;;;;;;;;;;516211;28;1379;-71
2023/02/23 00:18:43;;;;;;;38.42;34.45;;;;;;;;;;517430;28;1168;-71
2023/02/23 00:18:59;;;;;;;37.13;33.33;;;;;;;;;;520286;28;1276;-71
2023/02/23 00:19:14;;;;;;;35.85;32.20;;;;;;;;;;521099;28;1429;-71
2023/02/23 00:19:32;;;;;;;34.83;31.37;;;;;;;;;;520682;28;1514;-71
2023/02/23 00:19:48;;;;;;;35.88;32.20;;;;;;;;;;522208;28;1382;-70
2023/02/23 00:20:11;;;;;;;35.60;31.90;;;;;;;;;;520220;28;1549;-71
2023/02/23 00:20:27;;;;;;;34.90;31.33;;;;;;;;;;519025;28;1431;-71
2023/02/23 00:20:46;;;;;;;34.23;30.73;;;;;;;;;;517094;28;1335;-70
2023/02/23 00:21:02;;;;;;;37.10;33.20;;;;;;;;;;517276;28;1501;-71
2023/02/23 00:21:20;;;;;;;39.55;35.25;;;;;;;;;;519094;28;1466;-71
2023/02/23 00:21:36;;;;;;;38.72;34.50;;;;;;;;;;517306;28;1479;-71
2023/02/23 00:21:52;;;;;;;38.77;34.57;;;;;;;;;;518773;28;1177;-70
2023/02/23 00:22:07;;;;;;;39.58;35.47;;;;;;;;;;518785;28;1413;-70
2023/02/23 00:22:24;;;;;;;40.67;36.30;;;;;;;;;;514654;28;1190;-70
2023/02/23 00:22:40;;;;;;;43.55;38.25;;;;;;;;;;514228;28;1417;-70
2023/02/23 00:22:56;;;;;;;43.65;38.55;;;;;;;;;;515507;28;1360;-71
2023/02/23 00:23:11;;;;;;;42.70;37.38;;;;;;;;;;513974;28;1942;-71
2023/02/23 00:23:26;;;;;;;40.80;36.37;;;;;;;;;;516547;28;1465;-70
2023/02/23 00:23:46;;;;;;;41.53;37.03;;;;;;;;;;516649;28;1537;-71
2023/02/23 00:24:05;;;;;;;44.13;38.10;;;;;;;;;;515570;28;1240;-71
2023/02/23 00:24:20;;;;;;;43.25;38.08;;;;;;;;;;516991;28;1450;-71
2023/02/23 00:24:37;;;;;;;45.08;38.88;;;;;;;;;;515424;28;1240;-72
2023/02/23 00:24:52;;;;;;;43.28;38.00;;;;;;;;;;514710;28;1792;-71
2023/02/23 00:25:10;;;;;;;44.28;38.30;;;;;;;;;;514839;28;1235;-71
2023/02/23 00:25:26;;;;;;;47.20;39.55;;;;;;;;;;516733;28;1435;-71
2023/02/23 00:25:44;;;;;;;46.63;39.97;;;;;;;;;;515393;28;1305;-71
2023/02/23 00:26:03;;;;;;;43.88;39.08;;;;;;;;;;516046;28;1362;-70
2023/02/23 00:26:20;;;;;;;43.35;38.63;;;;;;;;;;516979;28;2657;-71
2023/02/23 00:26:38;;;;;;;44.33;39.53;;;;;;;;;;517903;28;1473;-71
2023/02/23 00:26:54;;;;;;;46.20;40.53;;;;;;;;;;517417;28;1397;-70
2023/02/23 00:27:11;;;;;;;46.20;40.13;;;;;;;;;;515041;28;1457;-71
2023/02/23 00:27:26;;;;;;;43.90;39.03;;;;;;;;;;515840;28;1673;-70
2023/02/23 00:27:44;;;;;;;44.33;39.42;;;;;;;;;;516744;28;1227;-71
2023/02/23 00:28:00;;;;;;;44.17;38.83;;;;;;;;;;518836;28;1728;-71
2023/02/23 00:28:15;;;;;;;43.67;38.87;;;;;;;;;;518744;28;1400;-70
2023/02/23 00:28:30;;;;;;;43.83;39.13;;;;;;;;;;519463;28;1236;-71
2023/02/23 00:28:47;;;;;;;43.72;38.92;;;;;;;;;;521489;28;1399;-70
2023/02/23 00:29:06;;;;;;;44.17;39.05;;;;;;;;;;517881;28;1506;-70
2023/02/23 00:29:26;;;;;;;45.00;40.13;;;;;;;;;;515738;28;1260;-71
2023/02/23 00:29:41;;;;;;;44.70;39.67;;;;;;;;;;518597;28;1959;-71
2023/02/23 00:29:56;;;;;;;44.10;38.90;;;;;;;;;;520449;28;1231;-71
2023/02/23 00:30:13;;;;;;;44.92;39.63;;;;;;;;;;518949;28;1452;-71
2023/02/23 00:30:29;;;;;;;45.75;40.53;;;;;;;;;;520599;28;1429;-70
2023/02/23 00:30:45;;;;;;;48.35;40.88;;;;;;;;;;521032;28;1368;-71
2023/02/23 00:31:02;;;;;;;49.13;40.35;;;;;;;;;;520491;28;1397;-70
2023/02/23 00:31:24;;;;;;;47.78;40.10;;;;;;;;;;519874;28;2080;-70
2023/02/23 00:31:39;;;;;;;49.35;41.15;;;;;;;;;;518941;28;1500;-71
2023/02/23 00:31:54;;;;;;;48.65;41.22;;;;;;;;;;520147;28;1310;-71
2023/02/23 00:32:10;;;;;;;48.13;41.80;;;;;;;;;;517703;28;1322;-70
2023/02/23 00:32:25;;;;;;;50.10;42.63;;;;;;;;;;519167;28;1352;-71
2023/02/23 00:32:40;;;;;;;50.10;42.58;;;;;;;;;;515821;28;1361;-70
2023/02/23 00:32:56;;;;;;;48.53;41.93;;;;;;;;;;516363;28;2033;-71
2023/02/23 00:33:11;;;;;;;49.27;42.00;;;;;;;;;;516334;28;1174;-71
2023/02/23 00:33:29;;;;;;;51.55;43.25;;;;;;;;;;514356;28;1324;-70
2023/02/23 00:33:44;;;;;;;52.63;43.55;;;;;;;;;;516579;28;1318;-70
2023/02/23 00:34:01;;;;;;;51.78;43.10;;;;;;;;;;516120;28;1413;-70
2023/02/23 00:34:19;;;;;;;50.20;42.80;;;;;;;;;;515096;28;1457;-70
2023/02/23 00:34:35;;;;;;;49.45;42.78;;;;;;;;;;516471;28;1201;-71
2023/02/23 00:34:51;;;;;;;52.58;43.60;;;;;;;;;;514071;28;1418;-71
2023/02/23 00:35:11;;;;;;;50.47;42.40;;;;;;;;;;515156;28;1335;-71
2023/02/23 00:35:26;;;;;;;44.45;39.63;;;;;;;;;;514621;28;1461;-71
2023/02/23 00:35:42;;;;;;;45.40;40.40;;;;;;;;;;517151;28;1402;-70
2023/02/23 00:36:04;;;;;;;45.47;40.00;;;;;;;;;;516971;28;1772;-70
2023/02/23 00:36:21;;;;;;;40.20;36.05;;;;;;;;;;516595;28;1425;-70
2023/02/23 00:36:37;;;;;;;39.72;35.63;;;;;;;;;;516507;28;1385;-71
2023/02/23 00:36:54;;;;;;;40.35;36.25;;;;;;;;;;516906;28;1484;-70
2023/02/23 00:37:11;;;;;;;40.67;36.53;;;;;;;;;;514142;28;1560;-71
2023/02/23 00:37:26;;;;;;;42.83;38.35;;;;;;;;;;515904;28;1319;-70
2023/02/23 00:37:48;;;;;;;46.78;41.47;;;;;;;;;;514803;28;1945;-71
2023/02/23 00:38:03;;;;;;;50.08;42.80;;;;;;;;;;516945;28;1297;-70
2023/02/23 00:38:19;;;;;;;50.13;43.53;;;;;;;;;;516540;28;1441;-70
2023/02/23 00:38:35;;;;;;;51.77;44.27;;;;;;;;;;516822;28;1290;-70
2023/02/23 00:38:55;;;;;;;51.97;44.38;;;;;;;;;;518015;28;1487;-71
2023/02/23 00:39:21;;;;;;;51.53;44.53;;;;;;;;;;519675;28;1609;-71
2023/02/23 00:39:37;;;;;;;61.03;42.72;;;;;;;;;;518633;28;1404;-71
2023/02/23 00:39:55;;;;;;;60.20;39.75;;;;;;;;;;518780;28;1445;-70
2023/02/23 00:40:13;;;;;;;54.25;38.38;;;;;;;;;;520399;28;1389;-70
2023/02/23 00:40:28;;;;;;;50.78;37.47;;;;;;;;;;518840;28;1275;-70
2023/02/23 00:40:44;;;;;;;38.70;34.73;;;;;;;;;;516700;28;1559;-70
2023/02/23 00:41:05;;;;;;;38.85;34.95;;;;;;;;;;515764;28;1269;-71
2023/02/23 00:41:23;;;;;;;40.15;36.05;;;;;;;;;;516151;28;1485;-71
2023/02/23 00:41:39;;;;;;;40.50;36.30;;;;;;;;;;516615;28;1296;-71
2023/02/23 00:41:55;;;;;;;38.58;34.70;;;;;;;;;;516530;28;1290;-70
2023/02/23 00:42:12;;;;;;;38.00;34.30;;;;;;;;;;517400;28;1481;-70
2023/02/23 00:42:31;;;;;;;39.72;35.90;;;;;;;;;;517288;28;1430;-70
2023/02/23 00:42:46;;;;;;;39.75;35.85;;;;;;;;;;514879;28;1307;-71
2023/02/23 00:43:02;;;;;;;40.97;37.00;;;;;;;;;;516112;28;1282;-70
2023/02/23 00:43:18;;;;;;;40.67;36.70;;;;;;;;;;516073;28;1991;-70
2023/02/23 00:43:48;;;;;;;40.75;36.75;;;;;;;;;;516131;28;1278;-71
2023/02/23 00:44:04;;;;;;;40.70;36.80;;;;;;;;;;513122;28;1866;-71
2023/02/23 00:44:20;;;;;;;42.75;38.53;;;;;;;;;;514933;28;1091;-70
2023/02/23 00:44:39;;;;;;;43.47;39.05;;;;;;;;;;513594;28;1450;-71
2023/02/23 00:44:54;;;;;;;45.67;40.97;;;;;;;;;;516167;28;1320;-70
2023/02/23 00:45:11;;;;;;;47.30;42.40;;;;;;;;;;518154;28;1317;-71
2023/02/23 00:45:26;;;;;;;47.38;42.28;;;;;;;;;;520294;28;1385;-70
2023/02/23 00:45:42;;;;;;;47.40;42.33;;;;;;;;;;517639;28;2000;-71
2023/02/23 00:45:57;;;;;;;47.03;42.13;;;;;;;;;;517082;28;1441;-70
2023/02/23 00:46:16;;;;;;;47.33;42.53;;;;;;;;;;518448;28;1360;-70
2023/02/23 00:46:32;;;;;;;46.63;41.90;;;;;;;;;;518199;28;1329;-70
2023/02/23 00:46:50;;;;;;;45.87;41.17;;;;;;;;;;516826;28;1178;-70
2023/02/23 00:47:05;;;;;;;45.50;40.80;;;;;;;;;;513930;28;1495;-70
2023/02/23 00:47:21;;;;;;;44.25;39.83;;;;;;;;;;515682;28;1437;-70
2023/02/23 00:47:38;;;;;;;42.43;38.23;;;;;;;;;;515471;28;1470;-71
2023/02/23 00:47:53;;;;;;;41.80;37.70;;;;;;;;;;513375;28;1356;-70
2023/02/23 00:48:09;;;;;;;43.20;38.90;;;;;;;;;;518050;28;1757;-70
2023/02/23 00:48:27;;;;;;;45.27;40.70;;;;;;;;;;517866;28;1312;-71
2023/02/23 00:48:44;;;;;;;44.28;39.78;;;;;;;;;;516804;28;1507;-71
2023/02/23 00:48:59;;;;;;;40.70;36.58;;;;;;;;;;516919;28;2140;-71
2023/02/23 00:49:15;;;;;;;39.92;35.97;;;;;;;;;;516156;28;1464;-71
2023/02/23 00:49:31;;;;;;;41.15;37.15;;;;;;;;;;513719;28;1414;-71
2023/02/23 00:49:47;;;;;;;43.13;38.83;;;;;;;;;;515043;28;1434;-71
2023/02/23 00:50:03;;;;;;;42.17;37.87;;;;;;;;;;513043;28;1356;-70
2023/02/23 00:50:19;;;;;;;41.67;37.42;;;;;;;;;;514694;28;1700;-70
2023/02/23 00:50:34;;;;;;;43.50;38.90;;;;;;;;;;515727;28;1833;-71
2023/02/23 00:50:58;;;;;;;42.80;38.33;;;;;;;;;;519172;28;1390;-71
2023/02/23 00:51:14;;;;;;;43.78;39.28;;;;;;;;;;517367;28;1307;-71
2023/02/23 00:51:29;;;;;;;43.83;39.38;;;;;;;;;;516760;28;1552;-71
2023/02/23 00:51:45;;;;;;;43.97;39.47;;;;;;;;;;514654;28;1291;-70
2023/02/23 00:52:01;;;;;;;45.42;40.72;;;;;;;;;;512254;28;1825;-71
2023/02/23 00:52:16;;;;;;;46.27;41.27;;;;;;;;;;513085;28;1336;-71
2023/02/23 00:52:31;;;;;;;45.77;40.77;;;;;;;;;;513094;28;1194;-71
2023/02/23 00:52:47;;;;;;;46.03;41.15;;;;;;;;;;516144;28;1476;-71
2023/02/23 00:53:03;;;;;;;47.17;42.17;;;;;;;;;;515116;28;1476;-70
2023/02/23 00:53:19;;;;;;;48.30;43.10;;;;;;;;;;517150;28;1382;-71
2023/02/23 00:53:34;;;;;;;46.63;41.73;;;;;;;;;;518665;28;1782;-71
2023/02/23 00:53:53;;;;;;;44.42;39.72;;;;;;;;;;519917;28;1257;-71
2023/02/23 00:54:11;;;;;;;44.03;39.38;;;;;;;;;;520631;28;1380;-71
2023/02/23 00:54:26;;;;;;;43.70;39.30;;;;;;;;;;517567;28;1455;-70
2023/02/23 00:54:42;;;;;;;44.03;39.63;;;;;;;;;;516467;28;1434;-71
2023/02/23 00:54:57;;;;;;;43.75;39.15;;;;;;;;;;518062;28;1333;-71
2023/02/23 00:55:14;;;;;;;42.17;37.73;;;;;;;;;;517643;28;1808;-70
2023/02/23 00:55:29;;;;;;;40.88;36.88;;;;;;;;;;519023;28;1397;-70
2023/02/23 00:55:44;;;;;;;40.45;36.45;;;;;;;;;;517906;28;1484;-70
2023/02/23 00:56:02;;;;;;;39.63;35.70;;;;;;;;;;518817;28;1448;-71
2023/02/23 00:56:17;;;;;;;39.28;35.38;;;;;;;;;;517063;28;1390;-70
2023/02/23 00:56:33;;;;;;;40.67;36.67;;;;;;;;;;516812;28;1614;-71
2023/02/23 00:56:49;;;;;;;41.60;37.50;;;;;;;;;;519203;28;1716;-70
2023/02/23 00:57:04;;;;;;;41.55;37.35;;;;;;;;;;517679;28;1460;-70
2023/02/23 00:57:21;;;;;;;41.43;37.23;;;;;;;;;;517490;28;2320;-71
2023/02/23 00:57:36;;;;;;;43.60;39.03;;;;;;;;;;517015;28;1536;-71
2023/02/23 00:57:52;;;;;;;44.43;39.83;;;;;;;;;;516815;28;1302;-71
2023/02/23 00:58:08;;;;;;;43.77;39.27;;;;;;;;;;517335;28;1291;-70
2023/02/23 00:58:25;;;;;;;46.50;41.50;;;;;;;;;;514781;28;1350;-71
2023/02/23 00:58:41;;;;;;;47.88;42.70;;;;;;;;;;515518;28;1489;-71
2023/02/23 00:58:56;;;;;;;45.40;40.63;;;;;;;;;;516959;28;1457;-70
2023/02/23 00:59:13;;;;;;;44.40;39.83;;;;;;;;;;517426;28;1370;-71
2023/02/23 00:59:28;;;;;;;44.03;39.55;;;;;;;;;;516500;28;1258;-70
2023/02/23 00:59:43;;;;;;;45.17;40.40;;;;;;;;;;516206;28;1182;-71
2023/02/23 00:59:59;;;;;;;46.77;41.77;;;;;;;;;;518014;28;1777;-71
2023/02/23 01:00:19;;;;;;;48.00;42.83;;;;;;;;;;515532;28;1405;-70
2023/02/23 01:00:41;;;;;;;50.75;43.65;;;;;;;;;;513124;28;1307;-71
2023/02/23 01:00:58;;;;;;;51.60;43.42;;;;;;;;;;516275;28;1315;-70
2023/02/23 01:01:14;;;;;;;49.75;43.72;;;;;;;;;;518669;28;1280;-72
2023/02/23 01:01:29;;;;;;;47.42;42.22;;;;;;;;;;519041;28;1510;-71
2023/02/23 01:01:45;;;;;;;45.38;40.60;;;;;;;;;;517976;28;1720;-70
2023/02/23 01:02:00;;;;;;;46.70;41.80;;;;;;;;;;517631;28;1537;-70
2023/02/23 01:02:15;;;;;;;48.87;43.57;;;;;;;;;;517235;28;1402;-70
2023/02/23 01:02:31;;;;;;;48.67;43.40;;;;;;;;;;514461;28;1512;-71
2023/02/23 01:02:47;;;;;;;46.80;41.90;;;;;;;;;;514516;28;1531;-70
2023/02/23 01:03:02;;;;;;;44.08;39.58;;;;;;;;;;515025;28;1519;-71
2023/02/23 01:03:18;;;;;;;43.83;39.33;;;;;;;;;;515785;28;1911;-70
2023/02/23 01:03:33;;;;;;;43.30;38.97;;;;;;;;;;515409;28;1390;-70
2023/02/23 01:03:48;;;;;;;40.20;36.37;;;;;;;;;;516910;28;1260;-71
2023/02/23 01:04:06;;;;;;;38.92;35.30;;;;;;;;;;518134;28;1290;-71
2023/02/23 01:04:22;;;;;;;39.17;35.47;;;;;;;;;;516979;28;1414;-71
2023/02/23 01:04:37;;;;;;;38.58;34.88;;;;;;;;;;515783;28;1386;-71
2023/02/23 01:04:52;;;;;;;39.13;35.43;;;;;;;;;;515170;28;2562;-71
2023/02/23 01:05:09;;;;;;;40.42;36.47;;;;;;;;;;514930;28;1455;-71
2023/02/23 01:05:25;;;;;;;43.70;39.20;;;;;;;;;;516643;28;1564;-71
2023/02/23 01:05:40;;;;;;;44.23;39.77;;;;;;;;;;516552;28;1414;-70
2023/02/23 01:06:05;;;;;;;42.50;38.30;;;;;;;;;;518922;28;1223;-70
2023/02/23 01:06:20;;;;;;;44.08;39.65;;;;;;;;;;520907;28;1377;-70
2023/02/23 01:06:37;;;;;;;43.95;39.55;;;;;;;;;;521291;28;2012;-70
2023/02/23 01:06:52;;;;;;;44.42;40.03;;;;;;;;;;517566;28;1465;-72
2023/02/23 01:07:11;;;;;;;46.25;41.47;;;;;;;;;;520679;28;1359;-71
2023/02/23 01:07:27;;;;;;;44.47;39.85;;;;;;;;;;517091;28;1299;-70
2023/02/23 01:07:45;;;;;;;41.30;37.17;;;;;;;;;;515139;28;1353;-70
2023/02/23 01:08:00;;;;;;;41.53;37.33;;;;;;;;;;513850;28;1421;-71
2023/02/23 01:08:16;;;;;;;43.20;38.70;;;;;;;;;;515150;28;1414;-71
2023/02/23 01:08:33;;;;;;;45.55;40.72;;;;;;;;;;514405;28;1435;-71
2023/02/23 01:08:51;;;;;;;46.90;41.90;;;;;;;;;;513385;28;1439;-71
2023/02/23 01:09:20;;;;;;;46.67;41.70;;;;;;;;;;514460;28;1306;-70
2023/02/23 01:09:36;;;;;;;45.13;40.45;;;;;;;;;;515398;28;1749;-71
2023/02/23 01:09:52;;;;;;;44.15;39.70;;;;;;;;;;516157;28;1472;-70
2023/02/23 01:10:18;;;;;;;41.78;37.67;;;;;;;;;;518358;28;1482;-71
2023/02/23 01:10:35;;;;;;;42.50;38.20;;;;;;;;;;517171;28;1388;-71
2023/02/23 01:10:53;;;;;;;44.30;39.78;;;;;;;;;;517972;28;1473;-71
2023/02/23 01:11:12;;;;;;;44.60;40.10;;;;;;;;;;521593;28;1419;-70
2023/02/23 01:11:29;;;;;;;43.42;38.90;;;;;;;;;;521798;28;1276;-70
2023/02/23 01:11:45;;;;;;;41.60;37.42;;;;;;;;;;522656;28;1485;-70
2023/02/23 01:12:00;;;;;;;41.17;37.08;;;;;;;;;;521369;28;1463;-71
2023/02/23 01:12:16;;;;;;;40.20;36.20;;;;;;;;;;519524;28;1460;-70
2023/02/23 01:12:31;;;;;;;40.43;36.47;;;;;;;;;;517454;28;1520;-70
2023/02/23 01:12:51;;;;;;;40.55;36.55;;;;;;;;;;519247;28;1728;-70
2023/02/23 01:13:06;;;;;;;41.80;37.58;;;;;;;;;;515765;28;1438;-71
2023/02/23 01:13:23;;;;;;;43.70;39.10;;;;;;;;;;512918;28;1462;-71
2023/02/23 01:13:41;;;;;;;43.72;39.25;;;;;;;;;;514690;28;1434;-71
2023/02/23 01:13:58;;;;;;;44.75;40.13;;;;;;;;;;517536;28;1367;-71
2023/02/23 01:14:14;;;;;;;45.65;40.88;;;;;;;;;;519199;28;1390;-71
2023/02/23 01:14:30;;;;;;;46.07;41.17;;;;;;;;;;517192;28;1717;-71
2023/02/23 01:14:46;;;;;;;46.88;41.88;;;;;;;;;;519502;28;1506;-71
2023/02/23 01:15:02;;;;;;;45.58;40.83;;;;;;;;;;517337;28;1314;-71
2023/02/23 01:15:19;;;;;;;43.25;38.75;;;;;;;;;;518869;28;1391;-71
2023/02/23 01:15:43;;;;;;;41.88;37.55;;;;;;;;;;518511;28;1393;-71
2023/02/23 01:15:58;;;;;;;40.50;36.45;;;;;;;;;;517164;28;1791;-71
2023/02/23 01:16:16;;;;;;;39.93;35.93;;;;;;;;;;516702;28;1476;-71
2023/02/23 01:16:33;;;;;;;40.33;36.22;;;;;;;;;;518596;28;1257;-71
2023/02/23 01:16:48;;;;;;;41.25;37.10;;;;;;;;;;517304;28;1523;-71
2023/02/23 01:17:04;;;;;;;39.70;35.80;;;;;;;;;;518554;28;1425;-71
2023/02/23 01:17:19;;;;;;;37.35;33.65;;;;;;;;;;521570;28;1357;-71
2023/02/23 01:17:34;;;;;;;37.23;33.53;;;;;;;;;;521436;28;1724;-71
2023/02/23 01:17:50;;;;;;;38.97;35.10;;;;;;;;;;520685;28;1437;-71
2023/02/23 01:18:05;;;;;;;38.58;34.78;;;;;;;;;;515829;28;1160;-71
2023/02/23 01:18:21;;;;;;;37.80;34.10;;;;;;;;;;518083;28;1413;-70
2023/02/23 01:18:38;;;;;;;38.35;34.55;;;;;;;;;;521208;28;1376;-71
2023/02/23 01:18:55;;;;;;;41.17;36.80;;;;;;;;;;520863;28;1401;-71
2023/02/23 01:19:12;;;;;;;42.88;38.28;;;;;;;;;;518871;28;1735;-71
2023/02/23 01:19:27;;;;;;;41.45;37.08;;;;;;;;;;518930;28;1341;-71
2023/02/23 01:19:42;;;;;;;41.23;36.90;;;;;;;;;;518406;28;1346;-71
2023/02/23 01:19:58;;;;;;;41.67;37.40;;;;;;;;;;519972;28;1432;-71
2023/02/23 01:20:18;;;;;;;44.33;39.63;;;;;;;;;;518234;28;1390;-71
2023/02/23 01:20:35;;;;;;;46.42;41.35;;;;;;;;;;518611;28;1444;-71
2023/02/23 01:20:50;;;;;;;44.72;39.97;;;;;;;;;;518163;28;1760;-71
2023/02/23 01:21:18;;;;;;;44.13;39.53;;;;;;;;;;519152;28;1378;-71
2023/02/23 01:21:36;;;;;;;42.85;38.47;;;;;;;;;;518104;28;1202;-71
2023/02/23 01:21:52;;;;;;;43.17;38.70;;;;;;;;;;520555;28;1480;-71
2023/02/23 01:22:07;;;;;;;44.73;39.93;;;;;;;;;;519264;28;1452;-71
2023/02/23 01:22:22;;;;;;;45.23;40.47;;;;;;;;;;521439;28;1373;-71
2023/02/23 01:22:38;;;;;;;45.90;41.10;;;;;;;;;;517368;28;1764;-71
2023/02/23 01:22:53;;;;;;;46.05;41.25;;;;;;;;;;516038;28;1416;-71
2023/02/23 01:23:13;;;;;;;44.40;39.73;;;;;;;;;;519173;28;1389;-70
2023/02/23 01:23:28;;;;;;;44.47;39.85;;;;;;;;;;516350;28;1911;-70
2023/02/23 01:23:43;;;;;;;45.20;40.50;;;;;;;;;;516324;28;1226;-72
2023/02/23 01:24:01;;;;;;;45.03;40.28;;;;;;;;;;516679;28;1426;-72
2023/02/23 01:24:16;;;;;;;43.75;39.15;;;;;;;;;;518972;28;2063;-71
2023/02/23 01:24:31;;;;;;;45.00;40.30;;;;;;;;;;521131;28;1390;-71
2023/02/23 01:24:47;;;;;;;46.97;41.97;;;;;;;;;;519147;28;1345;-71
2023/02/23 01:25:02;;;;;;;47.27;42.23;;;;;;;;;;518657;28;1334;-71
2023/02/23 01:25:18;;;;;;;45.92;41.15;;;;;;;;;;515921;28;1361;-71
2023/02/23 01:25:34;;;;;;;47.40;42.40;;;;;;;;;;515746;28;1444;-71
2023/02/23 01:25:49;;;;;;;47.70;42.63;;;;;;;;;;517385;28;1439;-71
2023/02/23 01:26:05;;;;;;;43.30;38.83;;;;;;;;;;514998;28;1402;-71
2023/02/23 01:26:23;;;;;;;42.95;38.58;;;;;;;;;;514286;28;1375;-71
2023/02/23 01:26:41;;;;;;;42.97;38.65;;;;;;;;;;514606;28;1399;-71
2023/02/23 01:26:56;;;;;;;41.97;37.67;;;;;;;;;;517641;28;1331;-70
2023/02/23 01:27:12;;;;;;;44.92;40.15;;;;;;;;;;516066;28;1425;-71
2023/02/23 01:27:28;;;;;;;47.57;42.47;;;;;;;;;;516807;28;2157;-71
2023/02/23 01:27:44;;;;;;;48.97;43.67;;;;;;;;;;517038;28;1201;-71
2023/02/23 01:28:00;;;;;;;49.15;43.83;;;;;;;;;;519732;28;1282;-71
2023/02/23 01:28:18;;;;;;;47.67;42.65;;;;;;;;;;519651;28;1272;-71
2023/02/23 01:28:33;;;;;;;45.33;40.53;;;;;;;;;;519359;28;1099;-71
2023/02/23 01:28:54;;;;;;;45.23;40.33;;;;;;;;;;519398;28;1709;-71
2023/02/23 01:29:14;;;;;;;46.65;40.53;;;;;;;;;;520921;28;1294;-71
2023/02/23 01:29:30;;;;;;;52.20;39.70;;;;;;;;;;521512;28;1528;-71
2023/02/23 01:29:45;;;;;;;54.27;39.43;;;;;;;;;;521647;28;1215;-70
2023/02/23 01:30:00;;;;;;;52.50;40.60;;;;;;;;;;519956;28;1221;-71
2023/02/23 01:30:16;;;;;;;44.50;39.88;;;;;;;;;;518999;28;1359;-71
2023/02/23 01:30:31;;;;;;;42.63;38.43;;;;;;;;;;519052;28;1390;-71
2023/02/23 01:30:46;;;;;;;44.72;39.13;;;;;;;;;;516427;28;1515;-70
2023/02/23 01:31:07;;;;;;;74.10;40.43;;;;;;;;;;515977;28;1241;-71
2023/02/23 01:31:24;;;;;;;74.38;40.17;;;;;;;;;;518235;28;1593;-71
2023/02/23 01:31:45;;;;;;;61.78;39.47;;;;;;;;;;520453;28;1387;-71
2023/02/23 01:32:00;;;;;;;59.80;40.25;;;;;;;;;;521396;28;1338;-71
2023/02/23 01:32:15;;;;;;;58.63;40.33;;;;;;;;;;517346;28;1365;-71
2023/02/23 01:32:33;;;;;;;57.57;40.53;;;;;;;;;;519426;28;1568;-71
2023/02/23 01:32:49;;;;;;;43.70;38.60;;;;;;;;;;519244;28;1296;-71
2023/02/23 01:33:05;;;;;;;40.53;36.53;;;;;;;;;;518545;28;1314;-71
2023/02/23 01:33:20;;;;;;;39.47;35.57;;;;;;;;;;519413;28;1082;-72
2023/02/23 01:33:35;;;;;;;40.30;36.42;;;;;;;;;;520944;28;1018;-70
2023/02/23 01:34:02;;;;;;;41.77;37.77;;;;;;;;;;519754;28;1214;-71
2023/02/23 01:34:20;;;;;;;38.50;34.88;;;;;;;;;;518319;28;1300;-71
2023/02/23 01:34:35;;;;;;;39.55;35.85;;;;;;;;;;518757;28;1381;-72
2023/02/23 01:34:51;;;;;;;39.33;35.63;;;;;;;;;;517969;28;1340;-71
2023/02/23 01:35:08;;;;;;;37.77;34.27;;;;;;;;;;518226;28;1338;-71
2023/02/23 01:35:24;;;;;;;35.03;31.85;;;;;;;;;;518217;28;1421;-70
2023/02/23 01:35:39;;;;;;;33.97;30.97;;;;;;;;;;518090;28;1182;-71
2023/02/23 01:35:58;;;;;;;36.67;33.05;;;;;;;;;;516363;28;1288;-71
2023/02/23 01:36:14;;;;;;;47.25;36.45;;;;;;;;;;516691;28;1402;-70
2023/02/23 01:36:37;;;;;;;40.78;34.55;;;;;;;;;;519793;28;1239;-71
2023/02/23 01:36:53;;;;;;;37.22;33.47;;;;;;;;;;519517;28;1394;-71
2023/02/23 01:37:08;;;;;;;49.30;39.10;;;;;;;;;;517528;28;1403;-71
2023/02/23 01:37:23;;;;;;;48.03;40.43;;;;;;;;;;519139;28;1274;-71
2023/02/23 01:37:41;;;;;;;45.07;40.33;;;;;;;;;;520168;28;1227;-71
2023/02/23 01:37:57;;;;;;;47.25;42.17;;;;;;;;;;518614;28;1059;-71
2023/02/23 01:38:12;;;;;;;47.15;42.15;;;;;;;;;;521250;28;1571;-71
2023/02/23 01:38:27;;;;;;;47.13;42.23;;;;;;;;;;518872;28;1499;-71
2023/02/23 01:38:43;;;;;;;47.58;42.60;;;;;;;;;;521735;28;1240;-71
2023/02/23 01:38:58;;;;;;;46.03;41.33;;;;;;;;;;522392;28;1319;-71
2023/02/23 01:39:16;;;;;;;45.40;40.70;;;;;;;;;;518585;28;1344;-71
2023/02/23 01:39:32;;;;;;;43.85;39.33;;;;;;;;;;522651;28;1521;-71
2023/02/23 01:39:47;;;;;;;43.88;39.42;;;;;;;;;;522179;28;1408;-71
2023/02/23 01:40:08;;;;;;;45.13;40.53;;;;;;;;;;520409;28;1278;-71
2023/02/23 01:40:28;;;;;;;46.22;41.38;;;;;;;;;;519508;28;1389;-71
2023/02/23 01:40:43;;;;;;;41.95;37.67;;;;;;;;;;515818;28;1484;-71